sensor_id;sensor_type;location;lat;lon;timestamp;temperature;humidity
41953;DHT22;63613;28.200;112.870;2024-02-21T04:11:01;14.20;70.30
41953;DHT22;63613;28.200;112.870;2024-02-21T04:13:33;14.30;69.80
41953;DHT22;63613;28.200;112.870;2024-02-21T04:16:02;14.20;69.80
41953;DHT22;63613;28.200;112.870;2024-02-21T04:18:32;14.20;69.80
41953;DHT22;63613;28.200;112.870;2024-02-21T04:21:01;14.20;69.50
41953;DHT22;63613;28.200;112.870;2024-02-21T04:23:30;14.20;69.30
41953;DHT22;63613;28.200;112.870;2024-02-21T04:25:58;14.20;69.90
41953;DHT22;63613;28.200;112.870;2024-02-21T04:28:27;14.30;70.00
41953;DHT22;63613;28.200;112.870;2024-02-21T04:30:56;14.30;70.00
41953;DHT22;63613;28.200;112.870;2024-02-21T04:33:25;14.40;70.10
41953;DHT22;63613;28.200;112.870;2024-02-21T04:35:54;14.40;70.10
41953;DHT22;63613;28.200;112.870;2024-02-21T04:38:23;14.40;70.10
41953;DHT22;63613;28.200;112.870;2024-02-21T04:40:51;14.40;70.10
41953;DHT22;63613;28.200;112.870;2024-02-21T04:43:20;14.40;70.30
41953;DHT22;63613;28.200;112.870;2024-02-21T04:45:49;14.40;70.30
41953;DHT22;63613;28.200;112.870;2024-02-21T04:48:18;14.50;70.50
41953;DHT22;63613;28.200;112.870;2024-02-21T04:50:47;14.50;70.40
41953;DHT22;63613;28.200;112.870;2024-02-21T04:53:16;14.50;70.60
41953;DHT22;63613;28.200;112.870;2024-02-21T04:55:46;14.50;70.40
41953;DHT22;63613;28.200;112.870;2024-02-21T04:58:16;14.50;70.50
41953;DHT22;63613;28.200;112.870;2024-02-21T05:00:44;14.60;70.60
41953;DHT22;63613;28.200;112.870;2024-02-21T05:03:13;14.50;70.70
41953;DHT22;63613;28.200;112.870;2024-02-21T05:05:42;14.60;70.50
41953;DHT22;63613;28.200;112.870;2024-02-21T05:08:11;14.60;70.50
41953;DHT22;63613;28.200;112.870;2024-02-21T05:10:42;14.60;70.60
41953;DHT22;63613;28.200;112.870;2024-02-21T05:13:10;14.60;70.50
41953;DHT22;63613;28.200;112.870;2024-02-21T05:15:39;14.60;70.40
41953;DHT22;63613;28.200;112.870;2024-02-21T05:18:08;14.60;70.60
41953;DHT22;63613;28.200;112.870;2024-02-21T05:20:36;14.60;70.60
41953;DHT22;63613;28.200;112.870;2024-02-21T05:23:07;14.60;70.70
41953;DHT22;63613;28.200;112.870;2024-02-21T05:25:35;14.70;70.80
41953;DHT22;63613;28.200;112.870;2024-02-21T05:28:04;14.70;70.50
41953;DHT22;63613;28.200;112.870;2024-02-21T05:30:33;14.70;70.60
41953;DHT22;63613;28.200;112.870;2024-02-21T05:33:10;14.70;70.50
41953;DHT22;63613;28.200;112.870;2024-02-21T05:35:38;14.70;70.50
41953;DHT22;63613;28.200;112.870;2024-02-21T05:38:07;14.70;70.50
41953;DHT22;63613;28.200;112.870;2024-02-21T05:40:38;14.70;70.70
41953;DHT22;63613;28.200;112.870;2024-02-21T05:43:09;14.70;70.90
41953;DHT22;63613;28.200;112.870;2024-02-21T05:45:38;14.70;70.80
41953;DHT22;63613;28.200;112.870;2024-02-21T05:48:07;14.70;70.60
41953;DHT22;63613;28.200;112.870;2024-02-21T05:50:36;14.60;70.60
41953;DHT22;63613;28.200;112.870;2024-02-21T05:53:05;14.60;70.70
41953;DHT22;63613;28.200;112.870;2024-02-21T05:55:33;14.60;70.80
41953;DHT22;63613;28.200;112.870;2024-02-21T05:58:03;14.60;70.80
41953;DHT22;63613;28.200;112.870;2024-02-21T06:00:33;14.60;70.70
41953;DHT22;63613;28.200;112.870;2024-02-21T06:03:02;14.70;70.80
41953;DHT22;63613;28.200;112.870;2024-02-21T06:05:35;14.60;70.50
41953;DHT22;63613;28.200;112.870;2024-02-21T06:08:05;14.70;70.20
41953;DHT22;63613;28.200;112.870;2024-02-21T06:10:36;14.70;70.60
41953;DHT22;63613;28.200;112.870;2024-02-21T06:13:05;14.70;70.50
41953;DHT22;63613;28.200;112.870;2024-02-21T06:15:37;14.70;70.50
41953;DHT22;63613;28.200;112.870;2024-02-21T06:18:06;14.70;70.60
41953;DHT22;63613;28.200;112.870;2024-02-21T06:20:34;14.70;70.50
41953;DHT22;63613;28.200;112.870;2024-02-21T06:23:04;14.70;70.60
41953;DHT22;63613;28.200;112.870;2024-02-21T06:25:33;14.70;70.70
41953;DHT22;63613;28.200;112.870;2024-02-21T06:28:01;14.70;70.90
41953;DHT22;63613;28.200;112.870;2024-02-21T06:30:32;14.60;70.90
41953;DHT22;63613;28.200;112.870;2024-02-21T06:33:00;14.70;70.80
41953;DHT22;63613;28.200;112.870;2024-02-21T06:35:30;14.70;71.00
41953;DHT22;63613;28.200;112.870;2024-02-21T06:37:59;14.70;71.00
41953;DHT22;63613;28.200;112.870;2024-02-21T06:40:27;14.60;71.00
41953;DHT22;63613;28.200;112.870;2024-02-21T06:42:58;14.70;70.70
41953;DHT22;63613;28.200;112.870;2024-02-21T06:45:26;14.40;68.30
41953;DHT22;63613;28.200;112.870;2024-02-21T06:47:55;14.40;68.70
41953;DHT22;63613;28.200;112.870;2024-02-21T06:50:24;14.40;69.20
41953;DHT22;63613;28.200;112.870;2024-02-21T06:52:53;14.40;69.60
41953;DHT22;63613;28.200;112.870;2024-02-21T06:55:23;14.50;69.50
41953;DHT22;63613;28.200;112.870;2024-02-21T06:57:51;14.60;69.50
41953;DHT22;63613;28.200;112.870;2024-02-21T07:00:20;14.60;69.60
41953;DHT22;63613;28.200;112.870;2024-02-21T07:02:49;14.60;69.40
41953;DHT22;63613;28.200;112.870;2024-02-21T07:05:18;14.60;69.60
41953;DHT22;63613;28.200;112.870;2024-02-21T07:07:47;14.60;69.50
41953;DHT22;63613;28.200;112.870;2024-02-21T07:10:16;14.60;69.60
41953;DHT22;63613;28.200;112.870;2024-02-21T07:12:44;14.60;69.70
41953;DHT22;63613;28.200;112.870;2024-02-21T07:15:13;14.60;69.70
41953;DHT22;63613;28.200;112.870;2024-02-21T07:17:42;14.60;69.70
41953;DHT22;63613;28.200;112.870;2024-02-21T07:20:12;14.60;69.60
41953;DHT22;63613;28.200;112.870;2024-02-21T07:22:41;14.60;69.50
41953;DHT22;63613;28.200;112.870;2024-02-21T07:25:09;14.60;69.50
41953;DHT22;63613;28.200;112.870;2024-02-21T07:27:38;14.60;69.80
41953;DHT22;63613;28.200;112.870;2024-02-21T07:30:08;14.60;69.80
41953;DHT22;63613;28.200;112.870;2024-02-21T07:32:37;14.60;70.10
41953;DHT22;63613;28.200;112.870;2024-02-21T07:35:06;14.70;69.70
41953;DHT22;63613;28.200;112.870;2024-02-21T07:37:38;14.60;69.60
41953;DHT22;63613;28.200;112.870;2024-02-21T07:40:12;14.60;69.70
41953;DHT22;63613;28.200;112.870;2024-02-21T07:42:43;14.60;69.90
41953;DHT22;63613;28.200;112.870;2024-02-21T07:45:12;14.60;69.80
41953;DHT22;63613;28.200;112.870;2024-02-21T07:47:40;14.60;70.00
41953;DHT22;63613;28.200;112.870;2024-02-21T07:50:09;14.60;70.00
41953;DHT22;63613;28.200;112.870;2024-02-21T07:52:38;14.60;69.90
41953;DHT22;63613;28.200;112.870;2024-02-21T07:55:09;14.60;70.10
41953;DHT22;63613;28.200;112.870;2024-02-21T07:57:38;14.60;70.00
41953;DHT22;63613;28.200;112.870;2024-02-21T08:00:07;14.50;70.00
41953;DHT22;63613;28.200;112.870;2024-02-21T08:02:41;14.50;69.90
41953;DHT22;63613;28.200;112.870;2024-02-21T08:05:13;14.50;69.90
41953;DHT22;63613;28.200;112.870;2024-02-21T08:07:41;14.50;70.20
41953;DHT22;63613;28.200;112.870;2024-02-21T08:10:10;14.60;70.00
41953;DHT22;63613;28.200;112.870;2024-02-21T08:12:39;14.60;70.00
41953;DHT22;63613;28.200;112.870;2024-02-21T08:15:08;14.50;70.20
41953;DHT22;63613;28.200;112.870;2024-02-21T08:17:41;14.60;70.20
41953;DHT22;63613;28.200;112.870;2024-02-21T08:20:10;14.60;70.30
41953;DHT22;63613;28.200;112.870;2024-02-21T08:22:39;14.60;70.20
41953;DHT22;63613;28.200;112.870;2024-02-21T08:25:08;14.60;70.20
41953;DHT22;63613;28.200;112.870;2024-02-21T08:27:38;14.60;69.90
41953;DHT22;63613;28.200;112.870;2024-02-21T08:30:10;14.60;69.80
41953;DHT22;63613;28.200;112.870;2024-02-21T08:32:39;14.60;69.90
41953;DHT22;63613;28.200;112.870;2024-02-21T08:35:08;14.50;69.90
41953;DHT22;63613;28.200;112.870;2024-02-21T08:37:37;14.60;69.70
41953;DHT22;63613;28.200;112.870;2024-02-21T08:40:06;14.60;69.80
41953;DHT22;63613;28.200;112.870;2024-02-21T08:42:39;14.60;70.00
41953;DHT22;63613;28.200;112.870;2024-02-21T08:45:08;14.60;69.90
41953;DHT22;63613;28.200;112.870;2024-02-21T08:47:40;14.60;70.00
41953;DHT22;63613;28.200;112.870;2024-02-21T08:50:09;14.60;70.10
41953;DHT22;63613;28.200;112.870;2024-02-21T08:52:39;14.50;69.90
41953;DHT22;63613;28.200;112.870;2024-02-21T08:55:08;14.60;69.90
41953;DHT22;63613;28.200;112.870;2024-02-21T08:57:36;14.50;69.90
41953;DHT22;63613;28.200;112.870;2024-02-21T09:00:07;14.60;70.00
41953;DHT22;63613;28.200;112.870;2024-02-21T09:02:42;14.60;70.10
41953;DHT22;63613;28.200;112.870;2024-02-21T09:05:11;14.50;69.90
41953;DHT22;63613;28.200;112.870;2024-02-21T09:07:40;14.50;70.20
41953;DHT22;63613;28.200;112.870;2024-02-21T09:10:09;14.50;70.30
41953;DHT22;63613;28.200;112.870;2024-02-21T09:12:38;14.50;70.30
41953;DHT22;63613;28.200;112.870;2024-02-21T09:15:09;14.60;70.30
41953;DHT22;63613;28.200;112.870;2024-02-21T09:17:38;14.60;70.30
41953;DHT22;63613;28.200;112.870;2024-02-21T09:20:07;14.60;70.40
41953;DHT22;63613;28.200;112.870;2024-02-21T09:22:39;14.60;70.70
41953;DHT22;63613;28.200;112.870;2024-02-21T09:25:09;14.60;70.90
41953;DHT22;63613;28.200;112.870;2024-02-21T09:27:39;14.60;71.20
41953;DHT22;63613;28.200;112.870;2024-02-21T09:30:08;14.60;71.60
41953;DHT22;63613;28.200;112.870;2024-02-21T09:32:37;14.60;71.20
41953;DHT22;63613;28.200;112.870;2024-02-21T09:35:06;14.60;71.40
41953;DHT22;63613;28.200;112.870;2024-02-21T09:37:37;14.60;71.10
41953;DHT22;63613;28.200;112.870;2024-02-21T09:40:06;14.60;71.00
41953;DHT22;63613;28.200;112.870;2024-02-21T09:42:39;14.60;70.80
41953;DHT22;63613;28.200;112.870;2024-02-21T09:45:20;14.60;70.80
41953;DHT22;63613;28.200;112.870;2024-02-21T09:48:06;14.60;70.90
41953;DHT22;63613;28.200;112.870;2024-02-21T09:50:41;14.60;71.00
41953;DHT22;63613;28.200;112.870;2024-02-21T09:53:13;14.60;71.10
41953;DHT22;63613;28.200;112.870;2024-02-21T09:55:44;14.50;71.30
41953;DHT22;63613;28.200;112.870;2024-02-21T09:58:14;14.50;71.20
41953;DHT22;63613;28.200;112.870;2024-02-21T10:00:43;14.60;71.30
41953;DHT22;63613;28.200;112.870;2024-02-21T10:03:11;14.50;71.50
41953;DHT22;63613;28.200;112.870;2024-02-21T10:05:48;14.60;71.40
41953;DHT22;63613;28.200;112.870;2024-02-21T10:08:21;14.50;71.30
41953;DHT22;63613;28.200;112.870;2024-02-21T10:10:49;14.60;71.30
41953;DHT22;63613;28.200;112.870;2024-02-21T10:13:26;14.60;71.30
41953;DHT22;63613;28.200;112.870;2024-02-21T10:16:08;14.60;71.40
41953;DHT22;63613;28.200;112.870;2024-02-21T10:18:39;14.50;71.40
41953;DHT22;63613;28.200;112.870;2024-02-21T10:21:08;14.50;71.60
41953;DHT22;63613;28.200;112.870;2024-02-21T10:23:48;14.50;71.60
41953;DHT22;63613;28.200;112.870;2024-02-21T10:26:19;14.50;71.70
41953;DHT22;63613;28.200;112.870;2024-02-21T10:28:49;14.50;71.60
41953;DHT22;63613;28.200;112.870;2024-02-21T10:31:24;14.50;71.70
41953;DHT22;63613;28.200;112.870;2024-02-21T10:33:57;14.50;72.10
41953;DHT22;63613;28.200;112.870;2024-02-21T10:36:26;14.50;72.10
41953;DHT22;63613;28.200;112.870;2024-02-21T10:38:57;14.50;71.90
41953;DHT22;63613;28.200;112.870;2024-02-21T10:41:26;14.50;71.80
41953;DHT22;63613;28.200;112.870;2024-02-21T10:43:56;14.60;71.70
41953;DHT22;63613;28.200;112.870;2024-02-21T10:46:25;14.60;71.60
41953;DHT22;63613;28.200;112.870;2024-02-21T10:49:10;14.60;71.60
41953;DHT22;63613;28.200;112.870;2024-02-21T10:51:43;14.60;71.70
41953;DHT22;63613;28.200;112.870;2024-02-21T10:54:30;14.60;71.60
41953;DHT22;63613;28.200;112.870;2024-02-21T10:57:01;14.60;71.60
41953;DHT22;63613;28.200;112.870;2024-02-21T10:59:33;14.60;71.70
41953;DHT22;63613;28.200;112.870;2024-02-21T11:02:02;14.60;71.70
41953;DHT22;63613;28.200;112.870;2024-02-21T11:04:32;14.60;72.00
41953;DHT22;63613;28.200;112.870;2024-02-21T11:07:06;14.70;72.00
41953;DHT22;63613;28.200;112.870;2024-02-21T11:09:38;14.70;71.90
41953;DHT22;63613;28.200;112.870;2024-02-21T11:12:07;14.70;72.10
41953;DHT22;63613;28.200;112.870;2024-02-21T11:14:39;14.70;72.00
41953;DHT22;63613;28.200;112.870;2024-02-21T11:17:18;14.70;71.90
41953;DHT22;63613;28.200;112.870;2024-02-21T11:19:50;14.60;71.90
41953;DHT22;63613;28.200;112.870;2024-02-21T11:22:20;14.70;71.70
41953;DHT22;63613;28.200;112.870;2024-02-21T11:24:50;14.70;71.80
41953;DHT22;63613;28.200;112.870;2024-02-21T11:27:21;14.60;71.60
41953;DHT22;63613;28.200;112.870;2024-02-21T11:29:57;14.60;71.60
41953;DHT22;63613;28.200;112.870;2024-02-21T11:32:27;14.60;71.50
41953;DHT22;63613;28.200;112.870;2024-02-21T11:34:59;14.60;71.30
41953;DHT22;63613;28.200;112.870;2024-02-21T11:37:33;14.60;71.30
41953;DHT22;63613;28.200;112.870;2024-02-21T11:40:06;14.60;71.30
41953;DHT22;63613;28.200;112.870;2024-02-21T11:42:37;14.60;71.30
41953;DHT22;63613;28.200;112.870;2024-02-21T11:45:06;14.60;71.30
41953;DHT22;63613;28.200;112.870;2024-02-21T11:47:36;14.50;71.30
41953;DHT22;63613;28.200;112.870;2024-02-21T11:50:11;14.60;71.20
41953;DHT22;63613;28.200;112.870;2024-02-21T11:52:40;14.60;71.20
41953;DHT22;63613;28.200;112.870;2024-02-21T11:55:09;14.50;71.10
41953;DHT22;63613;28.200;112.870;2024-02-21T11:57:38;14.40;71.30
41953;DHT22;63613;28.200;112.870;2024-02-21T12:00:15;14.50;71.30
41953;DHT22;63613;28.200;112.870;2024-02-21T12:02:45;14.50;71.40
41953;DHT22;63613;28.200;112.870;2024-02-21T12:05:14;14.50;71.30
41953;DHT22;63613;28.200;112.870;2024-02-21T12:07:43;14.60;71.30
41953;DHT22;63613;28.200;112.870;2024-02-21T12:10:14;14.60;71.30
41953;DHT22;63613;28.200;112.870;2024-02-21T12:12:43;14.60;71.20
41953;DHT22;63613;28.200;112.870;2024-02-21T12:15:11;14.70;71.30
41953;DHT22;63613;28.200;112.870;2024-02-21T12:17:41;14.70;71.10
41953;DHT22;63613;28.200;112.870;2024-02-21T12:20:14;14.80;71.10
41953;DHT22;63613;28.200;112.870;2024-02-21T12:22:43;14.80;71.20
41953;DHT22;63613;28.200;112.870;2024-02-21T12:25:22;14.80;71.00
41953;DHT22;63613;28.200;112.870;2024-02-21T12:27:53;14.80;70.90
41953;DHT22;63613;28.200;112.870;2024-02-21T12:30:24;14.80;71.00
41953;DHT22;63613;28.200;112.870;2024-02-21T12:32:54;14.90;70.90
41953;DHT22;63613;28.200;112.870;2024-02-21T12:35:23;14.90;70.90
41953;DHT22;63613;28.200;112.870;2024-02-21T12:37:53;14.80;70.70
41953;DHT22;63613;28.200;112.870;2024-02-21T12:40:22;14.80;70.80
41953;DHT22;63613;28.200;112.870;2024-02-21T12:42:53;14.80;70.80
41953;DHT22;63613;28.200;112.870;2024-02-21T12:45:22;14.80;70.90
41953;DHT22;63613;28.200;112.870;2024-02-21T12:47:50;14.80;70.80
41953;DHT22;63613;28.200;112.870;2024-02-21T12:50:19;14.90;70.70
41953;DHT22;63613;28.200;112.870;2024-02-21T12:52:50;14.90;70.70
41953;DHT22;63613;28.200;112.870;2024-02-21T12:55:20;14.90;70.50
41953;DHT22;63613;28.200;112.870;2024-02-21T12:57:49;14.80;70.40
41953;DHT22;63613;28.200;112.870;2024-02-21T13:00:18;14.80;70.50
41953;DHT22;63613;28.200;112.870;2024-02-21T13:02:48;14.80;70.40
41953;DHT22;63613;28.200;112.870;2024-02-21T13:05:17;14.80;70.50
41953;DHT22;63613;28.200;112.870;2024-02-21T13:07:47;14.80;70.60
41953;DHT22;63613;28.200;112.870;2024-02-21T13:10:16;14.80;70.60
41953;DHT22;63613;28.200;112.870;2024-02-21T13:12:46;14.90;70.50
41953;DHT22;63613;28.200;112.870;2024-02-21T13:15:14;14.90;70.60
41953;DHT22;63613;28.200;112.870;2024-02-21T13:17:45;15.00;70.70
41953;DHT22;63613;28.200;112.870;2024-02-21T13:20:15;15.00;70.50
41953;DHT22;63613;28.200;112.870;2024-02-21T13:22:44;15.10;70.30
41953;DHT22;63613;28.200;112.870;2024-02-21T13:25:13;15.10;70.20
41953;DHT22;63613;28.200;112.870;2024-02-21T13:27:45;15.10;70.20
41953;DHT22;63613;28.200;112.870;2024-02-21T13:30:14;15.00;70.10
41953;DHT22;63613;28.200;112.870;2024-02-21T13:32:45;15.00;70.00
41953;DHT22;63613;28.200;112.870;2024-02-21T13:35:14;15.10;70.10
41953;DHT22;63613;28.200;112.870;2024-02-21T13:37:43;15.00;70.10
41953;DHT22;63613;28.200;112.870;2024-02-21T13:40:12;15.00;70.00
41953;DHT22;63613;28.200;112.870;2024-02-21T13:42:42;15.00;70.00
41953;DHT22;63613;28.200;112.870;2024-02-21T13:45:10;15.00;70.10
41953;DHT22;63613;28.200;112.870;2024-02-21T13:47:39;15.00;70.10
41953;DHT22;63613;28.200;112.870;2024-02-21T13:50:08;15.10;70.10
41953;DHT22;63613;28.200;112.870;2024-02-21T13:52:38;15.00;70.10
41953;DHT22;63613;28.200;112.870;2024-02-21T13:55:09;15.10;70.00
41953;DHT22;63613;28.200;112.870;2024-02-21T13:57:38;15.10;70.00
41953;DHT22;63613;28.200;112.870;2024-02-21T14:00:07;15.00;69.90
41953;DHT22;63613;28.200;112.870;2024-02-21T14:02:38;15.00;69.90
41953;DHT22;63613;28.200;112.870;2024-02-21T14:05:07;15.00;70.00
41953;DHT22;63613;28.200;112.870;2024-02-21T14:07:38;15.00;70.00
41953;DHT22;63613;28.200;112.870;2024-02-21T14:10:08;14.90;69.90
41953;DHT22;63613;28.200;112.870;2024-02-21T14:12:37;15.00;69.90
41953;DHT22;63613;28.200;112.870;2024-02-21T14:15:06;15.00;69.90
41953;DHT22;63613;28.200;112.870;2024-02-21T14:17:34;14.90;69.90
41953;DHT22;63613;28.200;112.870;2024-02-21T14:20:07;14.90;69.80
41953;DHT22;63613;28.200;112.870;2024-02-21T14:22:37;14.90;69.80
41953;DHT22;63613;28.200;112.870;2024-02-21T14:25:05;14.90;69.90
41953;DHT22;63613;28.200;112.870;2024-02-21T14:27:34;14.90;69.80
41953;DHT22;63613;28.200;112.870;2024-02-21T14:30:04;14.90;69.80
41953;DHT22;63613;28.200;112.870;2024-02-21T14:32:33;14.80;69.70
41953;DHT22;63613;28.200;112.870;2024-02-21T14:35:03;14.80;69.70
41953;DHT22;63613;28.200;112.870;2024-02-21T14:37:31;14.80;69.80
41953;DHT22;63613;28.200;112.870;2024-02-21T14:40:00;14.80;69.70
41953;DHT22;63613;28.200;112.870;2024-02-21T14:42:29;14.80;69.60
41953;DHT22;63613;28.200;112.870;2024-02-21T14:44:58;14.80;69.60
41953;DHT22;63613;28.200;112.870;2024-02-21T14:47:32;14.80;69.60
41953;DHT22;63613;28.200;112.870;2024-02-21T14:50:02;14.80;69.60
41953;DHT22;63613;28.200;112.870;2024-02-21T14:52:32;14.80;69.50
41953;DHT22;63613;28.200;112.870;2024-02-21T14:55:02;14.80;69.50
41953;DHT22;63613;28.200;112.870;2024-02-21T14:57:32;14.80;69.50
41953;DHT22;63613;28.200;112.870;2024-02-21T15:00:01;14.70;69.50
41953;DHT22;63613;28.200;112.870;2024-02-21T15:02:35;14.70;69.40
41953;DHT22;63613;28.200;112.870;2024-02-21T15:05:04;14.80;69.50
41953;DHT22;63613;28.200;112.870;2024-02-21T15:07:35;14.70;69.40
41953;DHT22;63613;28.200;112.870;2024-02-21T15:10:04;14.70;69.40
41953;DHT22;63613;28.200;112.870;2024-02-21T15:12:34;14.70;69.40
41953;DHT22;63613;28.200;112.870;2024-02-21T15:15:02;14.70;69.30
41953;DHT22;63613;28.200;112.870;2024-02-21T15:17:31;14.60;69.30
41953;DHT22;63613;28.200;112.870;2024-02-21T15:20:02;14.60;69.20
41953;DHT22;63613;28.200;112.870;2024-02-21T15:22:35;14.60;69.30
41953;DHT22;63613;28.200;112.870;2024-02-21T15:25:04;14.60;69.20
41953;DHT22;63613;28.200;112.870;2024-02-21T15:27:33;14.60;69.20
41953;DHT22;63613;28.200;112.870;2024-02-21T15:30:05;14.60;69.10
41953;DHT22;63613;28.200;112.870;2024-02-21T15:32:34;14.60;69.10
41953;DHT22;63613;28.200;112.870;2024-02-21T15:35:05;14.60;69.20
41953;DHT22;63613;28.200;112.870;2024-02-21T15:37:34;14.60;69.00
41953;DHT22;63613;28.200;112.870;2024-02-21T15:40:03;14.60;69.10
41953;DHT22;63613;28.200;112.870;2024-02-21T15:42:35;14.50;69.10
41953;DHT22;63613;28.200;112.870;2024-02-21T15:45:04;14.60;69.00
41953;DHT22;63613;28.200;112.870;2024-02-21T15:47:34;14.50;68.90
41953;DHT22;63613;28.200;112.870;2024-02-21T15:50:03;14.60;69.00
41953;DHT22;63613;28.200;112.870;2024-02-21T15:52:32;14.50;68.90
41953;DHT22;63613;28.200;112.870;2024-02-21T15:55:01;14.50;68.90
41953;DHT22;63613;28.200;112.870;2024-02-21T15:57:30;14.50;68.90
41953;DHT22;63613;28.200;112.870;2024-02-21T15:59:59;14.50;68.80
41953;DHT22;63613;28.200;112.870;2024-02-21T16:02:28;14.50;68.90
41953;DHT22;63613;28.200;112.870;2024-02-21T16:04:57;14.50;68.90
41953;DHT22;63613;28.200;112.870;2024-02-21T16:07:27;14.50;68.80
41953;DHT22;63613;28.200;112.870;2024-02-21T16:09:56;14.50;68.90
41953;DHT22;63613;28.200;112.870;2024-02-21T16:12:25;14.50;68.80
41953;DHT22;63613;28.200;112.870;2024-02-21T16:14:54;14.40;68.80
41953;DHT22;63613;28.200;112.870;2024-02-21T16:17:23;14.40;68.80
41953;DHT22;63613;28.200;112.870;2024-02-21T16:19:53;14.40;68.90
41953;DHT22;63613;28.200;112.870;2024-02-21T16:22:23;14.50;68.80
41953;DHT22;63613;28.200;112.870;2024-02-21T16:24:52;14.50;68.80
41953;DHT22;63613;28.200;112.870;2024-02-21T16:27:21;14.40;68.80
41953;DHT22;63613;28.200;112.870;2024-02-21T16:29:52;14.40;68.70
41953;DHT22;63613;28.200;112.870;2024-02-21T16:32:21;14.40;68.70
41953;DHT22;63613;28.200;112.870;2024-02-21T16:34:50;14.40;68.70
41953;DHT22;63613;28.200;112.870;2024-02-21T16:37:19;14.40;68.70
41953;DHT22;63613;28.200;112.870;2024-02-21T16:39:48;14.40;68.70
41953;DHT22;63613;28.200;112.870;2024-02-21T16:42:18;14.40;68.70
41953;DHT22;63613;28.200;112.870;2024-02-21T16:44:47;14.40;68.70
41953;DHT22;63613;28.200;112.870;2024-02-21T16:47:18;14.40;68.60
41953;DHT22;63613;28.200;112.870;2024-02-21T16:49:47;14.40;68.70
41953;DHT22;63613;28.200;112.870;2024-02-21T16:52:17;14.40;68.70
41953;DHT22;63613;28.200;112.870;2024-02-21T16:54:46;14.30;68.60
41953;DHT22;63613;28.200;112.870;2024-02-21T16:57:16;14.30;68.70
41953;DHT22;63613;28.200;112.870;2024-02-21T16:59:45;14.30;68.60
41953;DHT22;63613;28.200;112.870;2024-02-21T17:02:14;14.30;68.70
41953;DHT22;63613;28.200;112.870;2024-02-21T17:04:43;14.30;68.60
41953;DHT22;63613;28.200;112.870;2024-02-21T17:07:13;14.30;68.60
41953;DHT22;63613;28.200;112.870;2024-02-21T17:09:41;14.30;68.60
41953;DHT22;63613;28.200;112.870;2024-02-21T17:12:10;14.30;68.60
41953;DHT22;63613;28.200;112.870;2024-02-21T17:14:39;14.30;68.50
41953;DHT22;63613;28.200;112.870;2024-02-21T17:17:08;14.30;68.60
41953;DHT22;63613;28.200;112.870;2024-02-21T17:19:38;14.30;68.60
41953;DHT22;63613;28.200;112.870;2024-02-21T17:22:06;14.30;68.50
41953;DHT22;63613;28.200;112.870;2024-02-21T17:24:35;14.40;68.50
41953;DHT22;63613;28.200;112.870;2024-02-21T17:27:04;14.40;68.40
41953;DHT22;63613;28.200;112.870;2024-02-21T17:29:33;14.40;68.50
41953;DHT22;63613;28.200;112.870;2024-02-21T17:32:03;14.40;68.70
41953;DHT22;63613;28.200;112.870;2024-02-21T17:34:33;14.40;68.70
41953;DHT22;63613;28.200;112.870;2024-02-21T17:37:01;14.40;68.90
41953;DHT22;63613;28.200;112.870;2024-02-21T17:39:30;14.50;68.90
41953;DHT22;63613;28.200;112.870;2024-02-21T17:41:59;14.50;68.90
41953;DHT22;63613;28.200;112.870;2024-02-21T17:44:29;14.60;68.90
41953;DHT22;63613;28.200;112.870;2024-02-21T17:46:57;14.60;69.00
41953;DHT22;63613;28.200;112.870;2024-02-21T17:49:26;14.60;69.00
41953;DHT22;63613;28.200;112.870;2024-02-21T17:51:55;14.60;69.00
41953;DHT22;63613;28.200;112.870;2024-02-21T17:54:24;14.60;69.20
41953;DHT22;63613;28.200;112.870;2024-02-21T17:56:54;14.60;69.40
41953;DHT22;63613;28.200;112.870;2024-02-21T17:59:24;14.60;69.50
41953;DHT22;63613;28.200;112.870;2024-02-21T18:01:53;14.60;70.00
41953;DHT22;63613;28.200;112.870;2024-02-21T18:04:21;14.70;70.10
41953;DHT22;63613;28.200;112.870;2024-02-21T18:06:50;14.70;70.00
41953;DHT22;63613;28.200;112.870;2024-02-21T18:09:20;14.60;70.20
41953;DHT22;63613;28.200;112.870;2024-02-21T18:11:49;14.60;70.20
41953;DHT22;63613;28.200;112.870;2024-02-21T18:14:19;14.60;70.20
41953;DHT22;63613;28.200;112.870;2024-02-21T18:16:48;14.50;70.20
41953;DHT22;63613;28.200;112.870;2024-02-21T18:19:17;14.50;70.10
41953;DHT22;63613;28.200;112.870;2024-02-21T18:21:48;14.40;70.10
41953;DHT22;63613;28.200;112.870;2024-02-21T18:24:18;14.40;70.10
41953;DHT22;63613;28.200;112.870;2024-02-21T18:26:49;14.40;70.10
41953;DHT22;63613;28.200;112.870;2024-02-21T18:29:17;14.40;70.10
41953;DHT22;63613;28.200;112.870;2024-02-21T18:31:46;14.30;70.10
41953;DHT22;63613;28.200;112.870;2024-02-21T18:34:17;14.30;70.10
41953;DHT22;63613;28.200;112.870;2024-02-21T18:36:46;14.30;70.10
41953;DHT22;63613;28.200;112.870;2024-02-21T18:39:15;14.30;70.00
41953;DHT22;63613;28.200;112.870;2024-02-21T18:41:44;14.30;70.00
41953;DHT22;63613;28.200;112.870;2024-02-21T18:44:12;14.30;70.00
41953;DHT22;63613;28.200;112.870;2024-02-21T18:46:42;14.30;70.00
41953;DHT22;63613;28.200;112.870;2024-02-21T18:49:11;14.30;70.00
41953;DHT22;63613;28.200;112.870;2024-02-21T18:51:40;14.30;69.90
41953;DHT22;63613;28.200;112.870;2024-02-21T18:54:09;14.30;69.90
41953;DHT22;63613;28.200;112.870;2024-02-21T18:56:38;14.30;69.80
41953;DHT22;63613;28.200;112.870;2024-02-21T18:59:09;14.30;69.80
41953;DHT22;63613;28.200;112.870;2024-02-21T19:01:38;14.30;69.80
41953;DHT22;63613;28.200;112.870;2024-02-21T19:04:07;14.20;69.70
41953;DHT22;63613;28.200;112.870;2024-02-21T19:06:36;14.20;69.70
41953;DHT22;63613;28.200;112.870;2024-02-21T19:09:05;14.20;69.70
41953;DHT22;63613;28.200;112.870;2024-02-21T19:11:35;14.10;69.60
41953;DHT22;63613;28.200;112.870;2024-02-21T19:14:04;14.20;69.50
41953;DHT22;63613;28.200;112.870;2024-02-21T19:16:32;14.20;69.50
41953;DHT22;63613;28.200;112.870;2024-02-21T19:19:01;14.10;69.50
41953;DHT22;63613;28.200;112.870;2024-02-21T19:21:30;14.20;69.50
41953;DHT22;63613;28.200;112.870;2024-02-21T19:24:00;14.10;69.50
41953;DHT22;63613;28.200;112.870;2024-02-21T19:26:28;14.10;69.40
41953;DHT22;63613;28.200;112.870;2024-02-21T19:28:57;14.10;69.40